»·PEaware :: ACA561 KSFO-CYVR

ACA561 :: KSFO-CYVR

FLIGHT INFORMATION

Flight Status: Arrived
Operator:
Air Canada
More flights by this operator :: More flights under this callsign
Pilot: Anonymous 18910 (18910)
Aircraft: AIRBUS A319
(A319)
More flights by this aircraft type
Origin: KSFO San Francisco Intl
United States
Destination: CYVR Vancouver Intl
Canada
More flights between these airports :: More routes between these airports
Route: NIITE3 DEDHD BTG J1 SEA PAE GRIZZ6
File this flight plan on PilotEdge
Remarks:
Altitude:
(Current/Filed)
36,000ft
Speed:
(Current/Filed)
425kts
Departed: 21-Jul-19 09:38 PM
Arrived: 21-Jul-19 11:23 PM
Distance/Time
Traveled:
694nm/1:45
Distance/Time
To Go:
Arrived

Flight Plot

Page will automatically refresh every two minutes.

Flight plan parsing failed; only flown route is shown


Map Options




Map Legend


Flown Route
Filed Route
Departure Airport
Arrival Airport
Navaid (VOR, NDB)
Fix

Horizontal Profiles

Position Reports

Time Latitude Longitude Heading Altitude Ground
Speed
21-Jul-19 21:06 37.617673 -122.389625 206 18ft 0kts
21-Jul-19 21:07 37.617673 -122.389625 206 18ft 0kts
21-Jul-19 21:08 37.617673 -122.389625 206 18ft 0kts
21-Jul-19 21:09 37.617673 -122.389625 206 18ft 0kts
21-Jul-19 21:10 37.617673 -122.389625 206 18ft 0kts
21-Jul-19 21:11 37.617673 -122.389625 206 18ft 0kts
21-Jul-19 21:12 37.617673 -122.389625 206 18ft 0kts
21-Jul-19 21:13 37.617673 -122.389625 206 18ft 0kts
21-Jul-19 21:14 37.617673 -122.389625 206 18ft 0kts
21-Jul-19 21:15 37.617673 -122.389625 206 18ft 0kts
21-Jul-19 21:16 37.617673 -122.389625 206 18ft 0kts
21-Jul-19 21:17 37.617673 -122.389625 206 18ft 0kts
21-Jul-19 21:18 37.617673 -122.389625 206 18ft 0kts
21-Jul-19 21:19 37.617673 -122.389625 206 18ft 0kts
21-Jul-19 21:20 37.617673 -122.389625 206 18ft 0kts
21-Jul-19 21:21 37.617673 -122.389625 206 18ft 0kts
21-Jul-19 21:22 37.617673 -122.389625 206 18ft 0kts
21-Jul-19 21:23 37.617936 -122.389464 206 18ft 2kts
21-Jul-19 21:24 37.618494 -122.389462 135 18ft 2kts
21-Jul-19 21:25 37.618962 -122.389858 190 18ft 2kts
21-Jul-19 21:26 37.619208 -122.389308 304 18ft 2kts
21-Jul-19 21:27 37.619149 -122.389185 296 18ft 0kts
21-Jul-19 21:28 37.619155 -122.389201 296 18ft 1kts
21-Jul-19 21:29 37.620031 -122.391241 297 18ft 5kts
21-Jul-19 21:30 37.620737 -122.392862 328 18ft 9kts
21-Jul-19 21:31 37.623381 -122.389990 72 18ft 15kts
21-Jul-19 21:32 37.621543 -122.384753 119 18ft 18kts
21-Jul-19 21:33 37.619483 -122.379944 128 18ft 17kts
21-Jul-19 21:34 37.615168 -122.379710 209 18ft 19kts
21-Jul-19 21:35 37.610485 -122.382753 208 18ft 17kts
21-Jul-19 21:36 37.608492 -122.382531 28 18ft 12kts
21-Jul-19 21:37 37.636992 -122.363037 30 964ft 169kts
21-Jul-19 21:38 37.673219 -122.317863 39 3164ft 209kts
21-Jul-19 21:39 37.733251 -122.324757 325 5234ft 268kts
21-Jul-19 21:40 37.803085 -122.364379 341 8613ft 284kts
21-Jul-19 21:41 37.883522 -122.386086 2 10732ft 333kts
21-Jul-19 21:42 37.981965 -122.355639 33 11986ft 403kts
21-Jul-19 21:43 38.082502 -122.285669 29 14694ft 422kts
21-Jul-19 21:44 38.185071 -122.216688 30 16982ft 438kts
21-Jul-19 21:45 38.294092 -122.141705 30 19121ft 452kts
21-Jul-19 21:46 38.417708 -122.117026 357 21712ft 455kts
21-Jul-19 21:47 38.546032 -122.125324 357 23508ft 467kts
21-Jul-19 21:48 38.676581 -122.133043 357 25267ft 474kts
21-Jul-19 21:49 38.809599 -122.140832 357 26700ft 485kts
21-Jul-19 21:50 38.943148 -122.148603 357 27965ft 494kts
21-Jul-19 21:51 39.078725 -122.156544 356 29072ft 502kts
21-Jul-19 21:52 39.219835 -122.164936 356 30034ft 507kts
21-Jul-19 21:53 39.358845 -122.173153 356 31123ft 506kts
21-Jul-19 21:54 39.496159 -122.181309 356 32014ft 505kts
21-Jul-19 21:55 39.637105 -122.189730 356 32836ft 505kts
21-Jul-19 21:56 39.776201 -122.198059 356 33544ft 505kts
21-Jul-19 21:57 39.916288 -122.206483 356 34178ft 504kts
21-Jul-19 21:58 40.056189 -122.214937 356 34760ft 503kts
21-Jul-19 21:59 40.183252 -122.222633 356 35164ft 503kts
21-Jul-19 22:00 40.316777 -122.230776 356 35573ft 501kts
21-Jul-19 22:01 40.454025 -122.239175 356 35879ft 502kts
21-Jul-19 22:02 40.593490 -122.247712 356 35914ft 502kts
21-Jul-19 22:03 40.733070 -122.256318 356 35912ft 502kts
21-Jul-19 22:04 40.872031 -122.264910 356 35924ft 502kts
21-Jul-19 22:05 41.011546 -122.273573 356 36020ft 501kts
21-Jul-19 22:06 41.140423 -122.281565 355 36072ft 501kts
21-Jul-19 22:08 41.273378 -122.289922 355 36097ft 500kts
21-Jul-19 22:09 41.413511 -122.298782 355 36103ft 504kts
21-Jul-19 22:10 41.551290 -122.307471 355 36095ft 506kts
21-Jul-19 22:11 41.688697 -122.316165 355 36073ft 506kts
21-Jul-19 22:12 41.829587 -122.325146 355 36055ft 507kts
21-Jul-19 22:13 41.970759 -122.334194 355 36050ft 507kts
21-Jul-19 22:14 42.108571 -122.343056 355 36045ft 507kts
21-Jul-19 22:15 42.248557 -122.352051 355 36052ft 507kts
21-Jul-19 22:16 42.389653 -122.361184 355 36041ft 506kts
21-Jul-19 22:17 42.530361 -122.370346 355 36014ft 506kts
21-Jul-19 22:18 42.668074 -122.379335 355 36028ft 500kts
21-Jul-19 22:19 42.806558 -122.388465 355 36085ft 499kts
21-Jul-19 22:20 42.945339 -122.397607 355 36113ft 498kts
21-Jul-19 22:21 43.082366 -122.406666 354 36127ft 497kts
21-Jul-19 22:22 43.211458 -122.415245 354 36126ft 497kts
21-Jul-19 22:23 43.350013 -122.424513 354 36124ft 497kts
21-Jul-19 22:24 43.487815 -122.433772 354 36100ft 498kts
21-Jul-19 22:25 43.625719 -122.443096 354 36059ft 497kts
21-Jul-19 22:26 43.764229 -122.452504 354 36049ft 500kts
21-Jul-19 22:26 43.880019 -122.460398 354 36049ft 500kts
21-Jul-19 22:28 44.039505 -122.471316 354 36049ft 500kts
21-Jul-19 22:29 44.173920 -122.480555 354 36047ft 500kts
21-Jul-19 22:29 44.287206 -122.488357 354 36049ft 500kts
21-Jul-19 22:31 44.446836 -122.499413 354 36041ft 500kts
21-Jul-19 22:31 44.562829 -122.507488 354 36026ft 500kts
21-Jul-19 22:33 44.724083 -122.518790 354 36023ft 501kts
21-Jul-19 22:33 44.839698 -122.526952 354 36029ft 500kts
21-Jul-19 22:34 44.977414 -122.536711 354 36040ft 501kts
21-Jul-19 22:36 45.139783 -122.548161 353 36041ft 500kts
21-Jul-19 22:36 45.254119 -122.556338 353 36045ft 500kts
21-Jul-19 22:37 45.393856 -122.566373 353 36037ft 500kts
21-Jul-19 22:38 45.532446 -122.576362 353 36026ft 501kts
21-Jul-19 22:39 45.671288 -122.586360 353 36021ft 501kts
21-Jul-19 22:40 45.801360 -122.583915 3 36021ft 505kts
21-Jul-19 22:41 45.940957 -122.560665 4 36021ft 505kts
21-Jul-19 22:42 46.080659 -122.537686 4 36032ft 504kts
21-Jul-19 22:43 46.214630 -122.515776 5 36044ft 507kts
21-Jul-19 22:44 46.350801 -122.493256 5 36048ft 507kts
21-Jul-19 22:45 46.488192 -122.470471 5 36047ft 508kts
21-Jul-19 22:46 46.623782 -122.447844 5 36047ft 508kts
21-Jul-19 22:47 46.763835 -122.424287 5 36034ft 509kts
21-Jul-19 22:48 46.904497 -122.400669 4 36024ft 509kts
21-Jul-19 22:49 47.040833 -122.377594 4 36020ft 513kts
21-Jul-19 22:50 47.178504 -122.354221 4 36019ft 514kts
21-Jul-19 22:51 47.312423 -122.331232 4 36021ft 514kts
21-Jul-19 22:52 47.439188 -122.309413 3 36019ft 512kts
21-Jul-19 22:53 47.576023 -122.300445 359 33969ft 502kts
21-Jul-19 22:54 47.708266 -122.292457 0 31195ft 502kts
21-Jul-19 22:55 47.837553 -122.283782 0 28381ft 501kts
21-Jul-19 22:56 47.968464 -122.291750 346 27017ft 477kts
21-Jul-19 22:57 48.096125 -122.329430 346 24826ft 461kts
21-Jul-19 22:58 48.214071 -122.363683 347 21828ft 437kts
21-Jul-19 22:59 48.322066 -122.395211 347 17736ft 408kts
21-Jul-19 23:00 48.427472 -122.426056 347 15915ft 389kts
21-Jul-19 23:01 48.531612 -122.456676 348 14190ft 378kts
21-Jul-19 23:02 48.633495 -122.486736 348 12451ft 368kts
21-Jul-19 23:03 48.720299 -122.528033 314 12021ft 309kts
21-Jul-19 23:04 48.770170 -122.624164 304 12019ft 288kts
21-Jul-19 23:05 48.816261 -122.714875 303 11996ft 287kts
21-Jul-19 23:06 48.864686 -122.809869 304 10841ft 291kts
21-Jul-19 23:07 48.913255 -122.905345 304 10119ft 281kts
21-Jul-19 23:08 48.959812 -122.993420 320 9769ft 261kts
21-Jul-19 23:09 49.030954 -123.000224 1 8653ft 260kts
21-Jul-19 23:10 49.074134 -122.939675 95 8008ft 243kts
21-Jul-19 23:11 49.070951 -122.836261 96 7234ft 240kts
21-Jul-19 23:12 49.061237 -122.743185 101 6084ft 242kts
21-Jul-19 23:13 49.079065 -122.655028 26 4718ft 234kts
21-Jul-19 23:14 49.123063 -122.671100 296 4042ft 226kts
21-Jul-19 23:15 49.151331 -122.755235 288 4007ft 222kts
21-Jul-19 23:16 49.164413 -122.840961 279 3999ft 201kts
21-Jul-19 23:17 49.174230 -122.925120 278 3064ft 199kts
21-Jul-19 23:18 49.182571 -122.999988 279 2088ft 154kts
21-Jul-19 23:19 49.189285 -123.060289 279 1336ft 142kts
21-Jul-19 23:20 49.196032 -123.120497 279 602ft 147kts
21-Jul-19 23:21 49.202275 -123.176536 279 18ft 86kts
21-Jul-19 23:22 49.202134 -123.188225 250 17ft 15kts
21-Jul-19 23:23 49.201122 -123.185075 137 17ft 9kts
21-Jul-19 23:24 49.197037 -123.185975 191 17ft 16kts
21-Jul-19 23:25 49.191456 -123.079948 279 1081ft 142kts
21-Jul-19 23:26 49.197900 -123.137015 279 371ft 142kts
21-Jul-19 23:27 49.201903 -123.173113 279 18ft 103kts
21-Jul-19 23:28 49.202408 -123.177761 280 18ft 80kts
21-Jul-19 23:29 49.190959 -123.075508 279 1135ft 142kts
21-Jul-19 23:30 49.197743 -123.135627 279 390ft 142kts
21-Jul-19 23:31 49.184080 -123.013531 279 1887ft 142kts

Navigation Log

Ident Type
Flight plan parsing failed, navigation log unavailable